Portada
METAR-TAF:

METAR-TAF

Aeroports :

Jakarta, Java, Indonèsia

latitud: 06-07S, longitud: 106-39E, altitud: 8 m

Observació

L'informe es va fer fa 14 minuts, a les 17:30 UTC
Vent 5 kt del Sud/Sud-Oest
Temperatura 27°C
Humitat 70%
Pressió 1011 hPa
Visibilitat: 4000 m
Escasses núvols a una alçada de 2000 ft
calitja

METAR: WIII 211730Z 21005KT 4000 HZ FEW020 27/21 Q1011 NOSIG

Hora: 00:44 (17:44 UTC)

Pronòstic

L'informe es va fer fa 44 minuts, a les 17:00 UTC
Pronòstic vàlid del 21 a les 18 UTC al 22 a les 24 UTC
Vent 2 kt amb direcció variable
Visibilitat: 5000 m
Escasses núvols a una alçada de 2000 ft
calitja
Evolucionant progressivament
l' 22 a les 02 UTC al 22 a les 04 UTC
Vent 12 kt del Est/Nord-Est
Visibilitat: 9000 m
Evolucionant progressivament
l' 22 a les 14 UTC al 22 a les 16 UTC
Vent 2 kt amb direcció variable

TAF: WIII 211700Z 2118/2224 VRB02KT 5000 HZ FEW020 BECMG 2202/2204 06012KT 9000 NSW BECMG 2214/2216 VRB02KT

Observacions i pronòstics meteorològics de més de 4000 aeroports (METAR i TAF).

Les estacions disponibles són els punts grocs i vermells al mapa.

Posi el ratolí al punt desitjat per veure el nom de l'estació.

Feu clic per veure les observacions i els pronòstics meteorològics.

Per canviar el mapa: feu clic els botons verds amb una creu de color negre per apropar; al botó verd amb un guió per allunyar la imatge; o en les fletxes verdes per a mapes adjacents.


METAR-TAF: